createdAt,value
2018-09-09T00:00:39.632Z,0
2018-09-09T00:01:40.045Z,0
2018-09-09T00:02:41.290Z,0
2018-09-09T00:03:40.707Z,0
2018-09-09T00:04:40.837Z,0
2018-09-09T00:05:41.804Z,0
2018-09-09T00:06:41.938Z,0
2018-09-09T00:07:42.351Z,0
2018-09-09T00:08:43.318Z,0
2018-09-09T00:09:42.869Z,0
2018-09-09T00:10:43.048Z,0
2018-09-09T00:11:43.739Z,0
2018-09-09T00:12:44.434Z,0
2018-09-09T00:13:45.122Z,0
2018-09-09T00:14:45.806Z,0
2018-09-09T00:15:46.219Z,0
2018-09-09T00:16:47.464Z,0
2018-09-09T00:17:48.154Z,0
2018-09-09T00:18:48.564Z,0
2018-09-09T00:19:49.269Z,0
2018-09-09T00:20:49.959Z,0
2018-09-09T00:21:50.646Z,0
2018-09-09T00:22:50.779Z,0
2018-09-09T00:23:51.743Z,0
2018-09-09T00:24:52.444Z,0
2018-09-09T00:25:53.410Z,0
2018-09-09T00:26:53.099Z,0
2018-09-09T00:27:53.231Z,0
2018-09-09T00:28:53.366Z,0
2018-09-09T00:29:54.626Z,0
2018-09-09T00:30:55.601Z,0
2018-09-09T00:31:56.010Z,0
2018-09-09T00:32:56.421Z,0
2018-09-09T00:33:56.833Z,0
2018-09-09T00:34:56.968Z,0
2018-09-09T00:35:57.381Z,0
2018-09-09T00:36:57.515Z,0
2018-09-09T00:37:57.654Z,0
2018-09-09T00:38:57.785Z,0
2018-09-09T00:39:58.772Z,0
2018-09-09T00:40:59.458Z,0
2018-09-09T00:41:59.874Z,0
2018-09-09T00:43:00.559Z,0
2018-09-09T00:44:01.250Z,0
2018-09-09T00:45:01.385Z,0
2018-09-09T00:46:01.519Z,0
2018-09-09T00:47:02.206Z,0
2018-09-09T00:48:02.339Z,0
2018-09-09T00:49:03.027Z,0
2018-09-09T00:50:02.735Z,0
2018-09-09T00:51:03.701Z,0
2018-09-09T00:52:04.115Z,0
2018-09-09T00:53:04.249Z,0
2018-09-09T00:54:04.661Z,0
2018-09-09T00:55:04.798Z,0
2018-09-09T00:56:05.210Z,0
2018-09-09T00:57:05.344Z,0
2018-09-09T00:58:05.755Z,0
2018-09-09T00:59:06.164Z,0
2018-09-09T01:00:07.147Z,0
2018-09-09T01:01:07.836Z,0
2018-09-09T01:02:08.525Z,0
2018-09-09T01:03:08.663Z,0
2018-09-09T01:04:09.070Z,0
2018-09-09T01:05:09.765Z,0
2018-09-09T01:06:10.174Z,0
2018-09-09T01:07:10.865Z,0
2018-09-09T01:08:11.274Z,0
2018-09-09T01:09:12.242Z,0
2018-09-09T01:10:12.232Z,0
2018-09-09T01:11:12.359Z,0
2018-09-09T01:12:12.773Z,0
2018-09-09T01:13:13.466Z,0
2018-09-09T01:14:14.154Z,0
2018-09-09T01:15:14.848Z,0
2018-09-09T01:16:14.979Z,0
2018-09-09T01:17:15.112Z,0
2018-09-09T01:18:15.243Z,0
2018-09-09T01:19:15.379Z,0
2018-09-09T01:20:16.360Z,0
2018-09-09T01:21:17.049Z,0
2018-09-09T01:22:17.460Z,0
2018-09-09T01:23:18.426Z,0
2018-09-09T01:24:18.839Z,0
2018-09-09T01:25:19.247Z,0
2018-09-09T01:26:19.380Z,0
2018-09-09T01:27:20.077Z,0
2018-09-09T01:28:20.214Z,0
2018-09-09T01:29:20.344Z,0
2018-09-09T01:30:21.101Z,0
2018-09-09T01:31:21.506Z,0
2018-09-09T01:32:21.641Z,0
2018-09-09T01:33:22.329Z,0
2018-09-09T01:34:22.741Z,0
2018-09-09T01:35:23.152Z,0
2018-09-09T01:36:23.291Z,0
2018-09-09T01:37:23.980Z,0
2018-09-09T01:38:24.670Z,0
2018-09-09T01:39:25.361Z,0
2018-09-09T01:40:25.345Z,0
2018-09-09T01:41:25.762Z,0
2018-09-09T01:42:26.510Z,0
2018-09-09T01:43:26.643Z,0
2018-09-09T01:44:27.051Z,0
2018-09-09T01:45:27.740Z,0
2018-09-09T01:46:28.154Z,0
2018-09-09T01:47:28.843Z,0
2018-09-09T01:48:29.536Z,0
2018-09-09T01:49:30.504Z,0
2018-09-09T01:50:30.208Z,0
2018-09-09T01:51:30.625Z,0
2018-09-09T01:52:31.870Z,0
2018-09-09T01:53:31.285Z,0
2018-09-09T01:54:32.246Z,0
2018-09-09T01:55:32.936Z,0
2018-09-09T01:56:33.623Z,0
2018-09-09T01:57:33.753Z,0
2018-09-09T01:58:33.887Z,0
2018-09-09T01:59:34.022Z,0
2018-09-09T02:00:35.280Z,0
2018-09-09T02:01:35.691Z,0
2018-09-09T02:02:36.100Z,0
2018-09-09T02:03:36.511Z,0
2018-09-09T02:04:36.642Z,0
2018-09-09T02:05:37.054Z,0
2018-09-09T02:06:37.746Z,0
2018-09-09T02:07:38.714Z,0
2018-09-09T02:08:38.403Z,0
2018-09-09T02:09:38.538Z,0
2018-09-09T02:10:39.517Z,0
2018-09-09T02:11:39.930Z,0
2018-09-09T02:12:40.336Z,0
2018-09-09T02:13:40.468Z,0
2018-09-09T02:14:41.159Z,0
2018-09-09T02:15:41.569Z,0
2018-09-09T02:16:41.980Z,0
2018-09-09T02:17:42.388Z,0
2018-09-09T02:18:43.078Z,0
2018-09-09T02:19:44.048Z,0
2018-09-09T02:20:44.579Z,0
2018-09-09T02:21:44.989Z,0
2018-09-09T02:22:45.678Z,0
2018-09-09T02:23:46.368Z,0
2018-09-09T02:24:47.057Z,0
2018-09-09T02:25:47.596Z,0
2018-09-09T02:26:47.934Z,0
2018-09-09T02:27:48.622Z,0
2018-09-09T02:28:49.312Z,0
2018-09-09T02:29:49.448Z,0
2018-09-09T02:30:50.149Z,0
2018-09-09T02:31:50.842Z,0
2018-09-09T02:32:51.250Z,0
2018-09-09T02:33:52.217Z,0
2018-09-09T02:34:52.904Z,0
2018-09-09T02:35:53.318Z,0
2018-09-09T02:36:54.288Z,0
2018-09-09T02:37:54.704Z,0
2018-09-09T02:38:55.120Z,0
2018-09-09T02:39:55.808Z,0
2018-09-09T02:40:55.793Z,0
2018-09-09T02:41:56.206Z,0
2018-09-09T02:42:56.619Z,0
2018-09-09T02:43:56.755Z,0
2018-09-09T02:44:57.166Z,0
2018-09-09T02:45:57.575Z,0
2018-09-09T02:46:58.266Z,0
2018-09-09T02:47:58.682Z,0
2018-09-09T02:48:59.373Z,0
2018-09-09T02:50:00.340Z,0
2018-09-09T02:51:00.878Z,0
2018-09-09T02:52:01.567Z,0
2018-09-09T02:53:01.698Z,0
2018-09-09T02:54:02.663Z,0
2018-09-09T02:55:02.796Z,0
2018-09-09T02:56:03.208Z,0
2018-09-09T02:57:03.618Z,0
2018-09-09T02:58:04.029Z,0
2018-09-09T02:59:04.717Z,0
2018-09-09T03:00:05.129Z,0
2018-09-09T03:01:05.391Z,0
2018-09-09T03:02:05.523Z,0
2018-09-09T03:03:06.211Z,0
2018-09-09T03:04:06.898Z,0
2018-09-09T03:05:07.869Z,0
2018-09-09T03:06:07.842Z,0
2018-09-09T03:07:08.533Z,0
2018-09-09T03:08:09.220Z,0
2018-09-09T03:09:09.643Z,0
2018-09-09T03:10:10.610Z,0
2018-09-09T03:11:10.701Z,0
2018-09-09T03:12:11.112Z,0
2018-09-09T03:13:11.521Z,0
2018-09-09T03:14:11.935Z,0
2018-09-09T03:15:12.348Z,0
2018-09-09T03:16:12.757Z,0
2018-09-09T03:17:13.448Z,0
2018-09-09T03:18:13.856Z,0
2018-09-09T03:19:14.545Z,0
2018-09-09T03:20:15.514Z,0
2018-09-09T03:21:15.495Z,0
2018-09-09T03:22:16.744Z,0
2018-09-09T03:23:17.153Z,0
2018-09-09T03:24:17.285Z,0
2018-09-09T03:25:17.699Z,0
2018-09-09T03:26:17.833Z,0
2018-09-09T03:27:18.521Z,0
2018-09-09T03:28:18.946Z,0
2018-09-09T03:29:20.201Z,0
2018-09-09T03:30:20.613Z,0
2018-09-09T03:31:21.429Z,0
2018-09-09T03:32:22.971Z,0
2018-09-09T03:33:22.386Z,0
2018-09-09T03:34:23.074Z,0
2018-09-09T03:35:23.510Z,0
2018-09-09T03:36:23.920Z,0
2018-09-09T03:37:24.053Z,0
2018-09-09T03:38:24.460Z,0
2018-09-09T03:39:24.882Z,0
2018-09-09T03:40:25.573Z,0
2018-09-09T03:41:26.119Z,0
2018-09-09T03:42:26.822Z,0
2018-09-09T03:43:27.529Z,0
2018-09-09T03:44:28.490Z,0
2018-09-09T03:45:28.902Z,0
2018-09-09T03:46:29.591Z,0
2018-09-09T03:47:30.000Z,0
2018-09-09T03:48:30.411Z,0
2018-09-09T03:49:30.822Z,0
2018-09-09T03:50:32.069Z,0
2018-09-09T03:51:31.607Z,0
2018-09-09T03:52:32.299Z,0
2018-09-09T03:53:32.708Z,0
2018-09-09T03:54:33.397Z,0
2018-09-09T03:55:33.813Z,0
2018-09-09T03:56:34.780Z,0
2018-09-09T03:57:35.747Z,0
2018-09-09T03:58:36.437Z,0
2018-09-09T03:59:37.412Z,0
2018-09-09T04:00:38.108Z,0
2018-09-09T04:01:38.103Z,0
2018-09-09T04:02:39.064Z,0
2018-09-09T04:03:39.476Z,0
2018-09-09T04:04:40.717Z,0
2018-09-09T04:05:40.407Z,0
2018-09-09T04:06:41.371Z,0
2018-09-09T04:07:42.062Z,0
2018-09-09T04:08:42.198Z,0
2018-09-09T04:09:43.160Z,0
2018-09-09T04:10:43.296Z,0
2018-09-09T04:11:44.280Z,0
2018-09-09T04:12:44.969Z,0
2018-09-09T04:13:45.101Z,0
2018-09-09T04:14:45.238Z,0
2018-09-09T04:15:45.926Z,0
2018-09-09T04:16:46.891Z,0
2018-09-09T04:17:47.577Z,0
2018-09-09T04:18:47.715Z,0
2018-09-09T04:19:48.681Z,0
2018-09-09T04:20:49.090Z,0
2018-09-09T04:21:50.184Z,0
2018-09-09T04:22:50.876Z,0
2018-09-09T04:23:51.565Z,0
2018-09-09T04:24:51.974Z,0
2018-09-09T04:25:52.390Z,0
2018-09-09T04:26:53.078Z,0
2018-09-09T04:27:54.046Z,0
2018-09-09T04:28:54.290Z,0
2018-09-09T04:29:54.978Z,0
2018-09-09T04:30:56.476Z,0
2018-09-09T04:31:56.718Z,0
2018-09-09T04:32:57.406Z,0
2018-09-09T04:33:58.096Z,0
2018-09-09T04:34:58.508Z,0
2018-09-09T04:35:58.940Z,0
2018-09-09T04:36:59.353Z,0
2018-09-09T04:38:00.047Z,0
2018-09-09T04:39:00.476Z,0
2018-09-09T04:40:00.892Z,0
2018-09-09T04:41:01.580Z,0
2018-09-09T04:42:01.850Z,0
2018-09-09T04:43:02.267Z,0
2018-09-09T04:44:02.679Z,0
2018-09-09T04:45:02.812Z,0
2018-09-09T04:46:03.225Z,0
2018-09-09T04:47:03.637Z,0
2018-09-09T04:48:04.366Z,0
2018-09-09T04:49:05.056Z,5.63
2018-09-09T04:49:18.065Z,5.63
2018-09-09T04:50:18.885Z,5.63
2018-09-09T04:51:19.297Z,5.63
2018-09-09T04:52:20.581Z,5.63
2018-09-09T04:53:20.321Z,5.63
2018-09-09T04:54:21.012Z,5.63
2018-09-09T04:55:21.709Z,5.63
2018-09-09T04:56:21.850Z,5.63
2018-09-09T04:57:22.537Z,5.63
2018-09-09T04:58:22.951Z,5.63
2018-09-09T04:59:23.375Z,11.25
2018-09-09T05:00:24.639Z,11.25
2018-09-09T05:01:26.404Z,11.25
2018-09-09T05:02:26.144Z,11.25
2018-09-09T05:03:26.279Z,11.25
2018-09-09T05:04:27.250Z,11.25
2018-09-09T05:05:27.388Z,11.25
2018-09-09T05:06:27.526Z,11.25
2018-09-09T05:07:28.496Z,16.88
2018-09-09T05:08:29.750Z,16.88
2018-09-09T05:09:29.439Z,16.88
2018-09-09T05:10:29.703Z,16.88
2018-09-09T05:11:30.395Z,16.88
2018-09-09T05:12:30.807Z,16.88
2018-09-09T05:13:31.499Z,22.5
2018-09-09T05:14:32.192Z,22.5
2018-09-09T05:15:33.162Z,22.5
2018-09-09T05:16:33.857Z,22.5
2018-09-09T05:17:34.549Z,22.5
2018-09-09T05:18:35.263Z,28.13
2018-09-09T05:19:35.683Z,33.75
2018-09-09T05:20:35.943Z,33.75
2018-09-09T05:21:36.635Z,33.75
2018-09-09T05:22:37.053Z,33.75
2018-09-09T05:23:37.470Z,33.75
2018-09-09T05:24:37.605Z,39.38
2018-09-09T05:25:38.299Z,39.38
2018-09-09T05:26:38.435Z,39.38
2018-09-09T05:27:38.576Z,39.38
2018-09-09T05:28:38.999Z,45
2018-09-09T05:29:39.695Z,45
2018-09-09T05:30:39.958Z,45
2018-09-09T05:31:40.929Z,45
2018-09-09T05:32:41.362Z,50.63
2018-09-09T05:33:41.779Z,50.63
2018-09-09T05:34:42.471Z,50.63
2018-09-09T05:35:42.888Z,50.63
2018-09-09T05:36:43.024Z,56.25
2018-09-09T05:37:43.487Z,50.63
2018-09-09T05:38:43.902Z,56.25
2018-09-09T05:39:44.596Z,56.25
2018-09-09T05:40:45.858Z,56.25
2018-09-09T05:41:46.825Z,56.25
2018-09-09T05:42:46.518Z,56.25
2018-09-09T05:43:46.654Z,56.25
2018-09-09T05:44:46.877Z,61.88
2018-09-09T05:45:47.209Z,61.88
2018-09-09T05:46:47.627Z,73.13
2018-09-09T05:47:47.762Z,73.13
2018-09-09T05:48:47.902Z,67.5
2018-09-09T05:49:49.151Z,73.13
2018-09-09T05:50:49.137Z,73.13
2018-09-09T05:51:49.558Z,78.75
2018-09-09T05:52:49.973Z,78.75
2018-09-09T05:53:50.833Z,67.5
2018-09-09T05:54:51.144Z,50.63
2018-09-09T05:55:50.836Z,50.63
2018-09-09T05:56:51.248Z,73.13
2018-09-09T05:57:52.547Z,84.38
2018-09-09T05:58:52.018Z,84.38
2018-09-09T05:59:52.155Z,84.38
2018-09-09T06:00:53.704Z,84.38
2018-09-09T06:01:54.126Z,84.38
2018-09-09T06:02:54.536Z,78.75
2018-09-09T06:03:54.960Z,84.38
2018-09-09T06:04:55.658Z,84.38
2018-09-09T06:05:56.073Z,84.38
2018-09-09T06:06:57.045Z,84.38
2018-09-09T06:07:56.740Z,84.38
2018-09-09T06:08:56.878Z,73.13
2018-09-09T06:09:57.571Z,73.13
2018-09-09T06:10:58.283Z,67.5
2018-09-09T06:11:58.973Z,67.5
2018-09-09T06:12:59.388Z,84.38
2018-09-09T06:14:00.083Z,95.63
2018-09-09T06:15:00.797Z,174.38
2018-09-09T06:16:01.218Z,343.13
2018-09-09T06:17:01.915Z,376.88
2018-09-09T06:18:02.336Z,489.38
2018-09-09T06:19:02.479Z,635.63
2018-09-09T06:20:02.898Z,646.88
2018-09-09T06:21:03.887Z,596.25
2018-09-09T06:22:04.861Z,416.25
2018-09-09T06:23:05.282Z,337.5
2018-09-09T06:24:05.703Z,286.88
2018-09-09T06:25:06.128Z,241.88
2018-09-09T06:26:06.550Z,489.38
2018-09-09T06:27:06.692Z,669.38
2018-09-09T06:28:07.430Z,562.5
2018-09-09T06:29:07.849Z,219.38
2018-09-09T06:30:08.274Z,174.38
2018-09-09T06:31:08.262Z,360
2018-09-09T06:32:08.965Z,500.63
2018-09-09T06:33:09.384Z,663.75
2018-09-09T06:34:10.084Z,658.13
2018-09-09T06:35:10.225Z,343.13
2018-09-09T06:36:10.644Z,202.5
2018-09-09T06:37:10.792Z,185.63
2018-09-09T06:38:11.275Z,219.38
2018-09-09T06:39:11.742Z,168.75
2018-09-09T06:40:12.158Z,140.63
2018-09-09T06:41:12.876Z,140.63
2018-09-09T06:42:13.576Z,146.25
2018-09-09T06:43:13.718Z,129.38
2018-09-09T06:44:14.144Z,129.38
2018-09-09T06:45:14.285Z,191.25
2018-09-09T06:46:14.428Z,213.75
2018-09-09T06:47:14.849Z,140.63
2018-09-09T06:48:15.272Z,140.63
2018-09-09T06:49:15.693Z,146.25
2018-09-09T06:50:16.671Z,168.75
2018-09-09T06:51:17.454Z,157.5
2018-09-09T06:52:16.802Z,168.75
2018-09-09T06:53:17.224Z,163.13
2018-09-09T06:54:18.480Z,157.5
2018-09-09T06:55:18.267Z,157.5
2018-09-09T06:56:18.686Z,163.13
2018-09-09T06:57:18.830Z,168.75
2018-09-09T06:58:19.251Z,174.38
2018-09-09T06:59:19.391Z,174.38
2018-09-09T07:00:20.090Z,185.63
2018-09-09T07:01:20.640Z,191.25
2018-09-09T07:02:20.790Z,185.63
2018-09-09T07:03:21.274Z,185.63
2018-09-09T07:04:22.257Z,185.63
2018-09-09T07:05:22.511Z,213.75
2018-09-09T07:06:22.212Z,202.5
2018-09-09T07:07:22.631Z,286.88
2018-09-09T07:08:22.775Z,241.88
2018-09-09T07:09:22.918Z,601.88
2018-09-09T07:10:23.065Z,585
2018-09-09T07:11:24.790Z,270
2018-09-09T07:12:25.043Z,168.75
2018-09-09T07:13:25.465Z,163.13
2018-09-09T07:14:25.937Z,174.38
2018-09-09T07:15:26.636Z,168.75
2018-09-09T07:16:27.334Z,219.38
2018-09-09T07:17:27.756Z,157.5
2018-09-09T07:18:27.899Z,202.5
2018-09-09T07:19:28.041Z,219.38
2018-09-09T07:20:28.182Z,163.13
2018-09-09T07:21:28.735Z,151.88
2018-09-09T07:22:29.164Z,146.25
2018-09-09T07:23:29.860Z,140.63
2018-09-09T07:24:30.556Z,196.88
2018-09-09T07:25:30.698Z,258.75
2018-09-09T07:26:31.124Z,196.88
2018-09-09T07:27:31.546Z,151.88
2018-09-09T07:28:32.538Z,151.88
2018-09-09T07:29:32.889Z,157.5
2018-09-09T07:30:33.033Z,241.88
2018-09-09T07:31:33.331Z,191.25
2018-09-09T07:32:34.031Z,151.88
2018-09-09T07:33:34.732Z,151.88
2018-09-09T07:34:35.152Z,157.5
2018-09-09T07:35:35.848Z,157.5
2018-09-09T07:36:36.267Z,157.5
2018-09-09T07:37:37.561Z,157.5
2018-09-09T07:38:36.967Z,146.25
2018-09-09T07:39:37.672Z,185.63
2018-09-09T07:40:38.087Z,298.13
2018-09-09T07:41:39.357Z,213.75
2018-09-09T07:42:39.780Z,343.13
2018-09-09T07:43:40.757Z,292.5
2018-09-09T07:44:40.898Z,264.38
2018-09-09T07:45:41.039Z,163.13
2018-09-09T07:46:41.462Z,163.13
2018-09-09T07:47:42.165Z,286.88
2018-09-09T07:48:42.860Z,326.25
2018-09-09T07:49:43.002Z,230.63
2018-09-09T07:50:43.613Z,174.38
2018-09-09T07:51:43.891Z,168.75
2018-09-09T07:52:44.033Z,174.38
2018-09-09T07:53:45.009Z,168.75
2018-09-09T07:54:45.715Z,163.13
2018-09-09T07:55:45.851Z,151.88
2018-09-09T07:56:46.548Z,151.88
2018-09-09T07:57:46.969Z,151.88
2018-09-09T07:58:47.666Z,146.25
2018-09-09T07:59:47.809Z,163.13
2018-09-09T08:00:48.228Z,151.88
2018-09-09T08:01:49.264Z,146.25
2018-09-09T08:02:49.959Z,163.13
2018-09-09T08:03:50.664Z,146.25
2018-09-09T08:04:51.081Z,140.63
2018-09-09T08:05:51.503Z,219.38
2018-09-09T08:06:51.926Z,303.75
2018-09-09T08:07:52.074Z,168.75
2018-09-09T08:08:52.494Z,320.63
2018-09-09T08:09:53.192Z,326.25
2018-09-09T08:10:53.888Z,157.5
2018-09-09T08:11:54.217Z,151.88
2018-09-09T08:12:54.574Z,151.88
2018-09-09T08:13:54.717Z,180
2018-09-09T08:14:54.863Z,343.13
2018-09-09T08:15:55.285Z,270
2018-09-09T08:16:55.704Z,174.38
2018-09-09T08:17:56.683Z,163.13
2018-09-09T08:18:56.826Z,163.13
2018-09-09T08:19:57.534Z,163.13
2018-09-09T08:20:57.954Z,157.5
2018-09-09T08:21:58.673Z,157.5
2018-09-09T08:22:59.091Z,163.13
2018-09-09T08:23:59.235Z,163.13
2018-09-09T08:24:59.656Z,163.13
2018-09-09T08:26:00.075Z,163.13
2018-09-09T08:27:00.221Z,163.13
2018-09-09T08:28:00.917Z,163.13
2018-09-09T08:29:01.614Z,157.5
2018-09-09T08:30:02.308Z,163.13
2018-09-09T08:31:03.148Z,157.5
2018-09-09T08:32:03.141Z,163.13
2018-09-09T08:33:03.841Z,168.75
2018-09-09T08:34:04.261Z,168.75
2018-09-09T08:35:05.517Z,163.13
2018-09-09T08:36:06.237Z,174.38
2018-09-09T08:37:06.660Z,168.75
2018-09-09T08:38:06.803Z,168.75
2018-09-09T08:39:06.943Z,168.75
2018-09-09T08:40:07.362Z,168.75
2018-09-09T08:41:07.504Z,174.38
2018-09-09T08:42:08.780Z,174.38
2018-09-09T08:43:09.197Z,174.38
2018-09-09T08:44:09.342Z,174.38
2018-09-09T08:45:09.767Z,174.38
2018-09-09T08:46:10.194Z,180
2018-09-09T08:47:11.169Z,185.63
2018-09-09T08:48:11.314Z,185.63
2018-09-09T08:49:11.739Z,185.63
2018-09-09T08:50:12.990Z,185.63
2018-09-09T08:51:13.411Z,185.63
2018-09-09T08:52:15.311Z,185.63
2018-09-09T08:53:15.014Z,185.63
2018-09-09T08:54:15.684Z,196.88
2018-09-09T08:55:15.825Z,185.63
2018-09-09T08:56:16.249Z,185.63
2018-09-09T08:57:16.668Z,185.63
2018-09-09T08:58:17.089Z,191.25
2018-09-09T08:59:18.066Z,196.88
2018-09-09T09:00:18.490Z,191.25
2018-09-09T09:01:19.187Z,196.88
2018-09-09T09:02:19.453Z,202.5
2018-09-09T09:03:19.878Z,202.5
2018-09-09T09:04:20.022Z,202.5
2018-09-09T09:05:20.721Z,208.13
2018-09-09T09:06:20.865Z,208.13
2018-09-09T09:07:21.633Z,213.75
2018-09-09T09:08:22.320Z,213.75
2018-09-09T09:09:23.018Z,219.38
2018-09-09T09:10:23.439Z,213.75
2018-09-09T09:11:23.861Z,219.38
2018-09-09T09:12:25.031Z,236.25
2018-09-09T09:13:27.277Z,270
2018-09-09T09:14:25.734Z,804.38
2018-09-09T09:15:26.436Z,1068.75
2018-09-09T09:16:27.138Z,646.88
2018-09-09T09:17:27.273Z,714.38
2018-09-09T09:18:27.763Z,1406.25
2018-09-09T09:19:28.756Z,1951.88
2018-09-09T09:20:29.850Z,1884.38
2018-09-09T09:21:29.287Z,1929.38
2018-09-09T09:22:30.848Z,1698.75
2018-09-09T09:23:31.692Z,1125
2018-09-09T09:24:32.366Z,641.25
2018-09-09T09:25:33.068Z,511.88
2018-09-09T09:26:33.770Z,770.63
2018-09-09T09:27:34.474Z,551.25
2018-09-09T09:28:34.898Z,320.63
2018-09-09T09:29:35.325Z,360
2018-09-09T09:30:36.456Z,399.38
2018-09-09T09:31:35.888Z,348.75
2018-09-09T09:32:35.957Z,309.38
2018-09-09T09:33:36.385Z,303.75
2018-09-09T09:34:36.809Z,309.38
2018-09-09T09:35:37.235Z,309.38
2018-09-09T09:36:37.381Z,320.63
2018-09-09T09:37:38.357Z,298.13
2018-09-09T09:38:37.783Z,298.13
2018-09-09T09:39:38.483Z,320.63
2018-09-09T09:40:38.908Z,326.25
2018-09-09T09:41:39.331Z,337.5
2018-09-09T09:42:39.603Z,405
2018-09-09T09:43:40.502Z,736.88
2018-09-09T09:44:41.294Z,1355.63
2018-09-09T09:45:41.005Z,1755
2018-09-09T09:46:41.153Z,2160
2018-09-09T09:47:41.590Z,1676.25
2018-09-09T09:48:42.012Z,635.63
2018-09-09T09:49:42.713Z,652.5
2018-09-09T09:50:43.417Z,675
2018-09-09T09:51:43.566Z,348.75
2018-09-09T09:52:44.283Z,371.25
2018-09-09T09:53:44.708Z,405
2018-09-09T09:54:45.133Z,500.63
2018-09-09T09:55:45.557Z,579.38
2018-09-09T09:56:46.260Z,483.75
2018-09-09T09:57:46.408Z,461.25
2018-09-09T09:58:46.836Z,382.5
2018-09-09T09:59:47.256Z,405
2018-09-09T10:00:47.680Z,438.75
2018-09-09T10:01:48.381Z,444.38
2018-09-09T10:02:48.934Z,450
2018-09-09T10:03:49.355Z,601.88
2018-09-09T10:04:50.105Z,1248.75
2018-09-09T10:05:49.532Z,1642.5
2018-09-09T10:06:49.958Z,1670.63
2018-09-09T10:07:50.108Z,1783.13
2018-09-09T10:08:50.535Z,1749.38
2018-09-09T10:09:50.685Z,1681.88
2018-09-09T10:10:51.110Z,1428.75
2018-09-09T10:11:51.813Z,1372.5
2018-09-09T10:12:52.092Z,1282.5
2018-09-09T10:13:52.794Z,1400.63
2018-09-09T10:14:52.941Z,1299.38
2018-09-09T10:15:53.368Z,1513.13
2018-09-09T10:16:54.072Z,1856.25
2018-09-09T10:17:54.501Z,1996.88
2018-09-09T10:18:55.485Z,2086.88
2018-09-09T10:19:56.190Z,2143.13
2018-09-09T10:20:56.619Z,2025
2018-09-09T10:21:57.045Z,2182.5
2018-09-09T10:22:58.042Z,2227.5
2018-09-09T10:23:58.749Z,2131.88
2018-09-09T10:24:59.175Z,2283.75
2018-09-09T10:25:59.327Z,2227.5
2018-09-09T10:26:59.763Z,2199.38
2018-09-09T10:27:59.907Z,2272.5
2018-09-09T10:29:00.341Z,2272.5
2018-09-09T10:30:01.477Z,2328.75
2018-09-09T10:31:00.917Z,2356.88
2018-09-09T10:32:01.908Z,2401.88
2018-09-09T10:33:02.187Z,2396.25
2018-09-09T10:34:03.177Z,2317.5
2018-09-09T10:35:03.330Z,2463.75
2018-09-09T10:36:04.318Z,2497.5
2018-09-09T10:37:04.746Z,2559.38
2018-09-09T10:38:05.737Z,2581.88
2018-09-09T10:39:06.713Z,2604.38
2018-09-09T10:40:07.142Z,2604.38
2018-09-09T10:41:07.573Z,2587.5
2018-09-09T10:42:08.005Z,2621.25
2018-09-09T10:43:09.286Z,2621.25
2018-09-09T10:44:09.719Z,2576.25
2018-09-09T10:45:10.774Z,2565
2018-09-09T10:46:10.668Z,2463.75
2018-09-09T10:47:11.940Z,2413.13
2018-09-09T10:48:12.644Z,2385
2018-09-09T10:49:13.076Z,2323.13
2018-09-09T10:50:13.232Z,2199.38
2018-09-09T10:51:13.938Z,2210.63
2018-09-09T10:52:13.812Z,2205
2018-09-09T10:53:14.591Z,2075.63
2018-09-09T10:54:14.040Z,1850.63
2018-09-09T10:55:14.748Z,1659.38
2018-09-09T10:56:14.902Z,1788.75
2018-09-09T10:57:15.329Z,1935
2018-09-09T10:58:16.042Z,2047.5
2018-09-09T10:59:16.474Z,2036.25
2018-09-09T11:00:17.459Z,2098.13
2018-09-09T11:01:17.891Z,2047.5
2018-09-09T11:02:19.160Z,1968.75
2018-09-09T11:03:19.433Z,2103.75
2018-09-09T11:04:19.586Z,2233.13
2018-09-09T11:05:19.739Z,2396.25
2018-09-09T11:06:20.169Z,2446.88
2018-09-09T11:07:20.600Z,2379.38
2018-09-09T11:08:21.310Z,2570.63
2018-09-09T11:09:21.464Z,2508.75
2018-09-09T11:10:21.895Z,2598.75
2018-09-09T11:11:22.048Z,2559.38
2018-09-09T11:12:22.480Z,2435.63
2018-09-09T11:13:22.772Z,2452.5
2018-09-09T11:14:23.203Z,2452.5
2018-09-09T11:15:23.910Z,2401.88
2018-09-09T11:16:24.062Z,2491.88
2018-09-09T11:17:24.219Z,2503.13
2018-09-09T11:18:24.666Z,2508.75
2018-09-09T11:19:25.238Z,2463.75
2018-09-09T11:20:25.945Z,2441.25
2018-09-09T11:21:26.376Z,2390.63
2018-09-09T11:22:26.809Z,2244.38
2018-09-09T11:23:27.093Z,2317.5
2018-09-09T11:24:27.862Z,2356.88
2018-09-09T11:25:27.905Z,2328.75
2018-09-09T11:26:28.334Z,2362.5
2018-09-09T11:27:29.321Z,2396.25
2018-09-09T11:28:29.753Z,2385
2018-09-09T11:29:30.470Z,2328.75
2018-09-09T11:30:31.178Z,2036.25
2018-09-09T11:31:31.613Z,1771.88
2018-09-09T11:32:32.601Z,2064.38
2018-09-09T11:33:32.879Z,2278.13
2018-09-09T11:34:33.034Z,2176.88
2018-09-09T11:35:33.464Z,2289.38
2018-09-09T11:36:33.620Z,2261.25
2018-09-09T11:37:34.049Z,2250
2018-09-09T11:38:34.759Z,2261.25
2018-09-09T11:39:35.189Z,2261.25
2018-09-09T11:40:36.321Z,2289.38
2018-09-09T11:41:35.981Z,2368.13
2018-09-09T11:42:36.413Z,2154.38
2018-09-09T11:43:37.413Z,1856.25
2018-09-09T11:44:37.843Z,2379.38
2018-09-09T11:45:38.283Z,2283.75
2018-09-09T11:46:38.988Z,2160
2018-09-09T11:47:39.975Z,2058.75
2018-09-09T11:48:40.128Z,2075.63
2018-09-09T11:49:40.562Z,2126.25
2018-09-09T11:50:41.005Z,2221.88
2018-09-09T11:51:41.434Z,2283.75
2018-09-09T11:52:42.145Z,2328.75
2018-09-09T11:53:42.833Z,2340
2018-09-09T11:54:43.265Z,2362.5
2018-09-09T11:55:43.976Z,2368.13
2018-09-09T11:56:44.403Z,2373.75
2018-09-09T11:57:44.552Z,2323.13
2018-09-09T11:58:44.984Z,2356.88
2018-09-09T11:59:45.694Z,2306.25
2018-09-09T12:00:46.123Z,2272.5
2018-09-09T12:01:46.273Z,2272.5
2018-09-09T12:02:46.703Z,2289.38
2018-09-09T12:03:47.425Z,2283.75
2018-09-09T12:04:47.579Z,2289.38
2018-09-09T12:05:48.314Z,2289.38
2018-09-09T12:06:48.744Z,2266.88
2018-09-09T12:07:49.449Z,2238.75
2018-09-09T12:08:49.880Z,2210.63
2018-09-09T12:09:50.863Z,2227.5
2018-09-09T12:10:51.291Z,2216.25
2018-09-09T12:11:52.001Z,2233.13
2018-09-09T12:12:52.430Z,2193.75
2018-09-09T12:13:53.154Z,2182.5
2018-09-09T12:14:53.858Z,2233.13
2018-09-09T12:15:54.288Z,2210.63
2018-09-09T12:16:54.717Z,2182.5
2018-09-09T12:17:55.149Z,2182.5
2018-09-09T12:18:55.305Z,2160
2018-09-09T12:19:55.733Z,2120.63
2018-09-09T12:20:56.161Z,2109.38
2018-09-09T12:21:56.313Z,2148.75
2018-09-09T12:22:57.303Z,2182.5
2018-09-09T12:23:57.611Z,2221.88
2018-09-09T12:24:58.318Z,2176.88
2018-09-09T12:25:58.752Z,2098.13
2018-09-09T12:26:59.178Z,2047.5
2018-09-09T12:27:59.607Z,1985.63
2018-09-09T12:28:59.759Z,1946.25
2018-09-09T12:30:00.190Z,1985.63
2018-09-09T12:31:00.617Z,1569.38
2018-09-09T12:32:01.046Z,1800
2018-09-09T12:33:01.782Z,1968.75
2018-09-09T12:34:02.064Z,1923.75
2018-09-09T12:35:02.772Z,2013.75
2018-09-09T12:36:03.204Z,2086.88
2018-09-09T12:37:03.356Z,1940.63
2018-09-09T12:38:04.085Z,1963.13
2018-09-09T12:39:04.792Z,1580.63
2018-09-09T12:40:05.222Z,1485
2018-09-09T12:41:05.651Z,1957.5
2018-09-09T12:42:06.085Z,1833.75
2018-09-09T12:43:06.791Z,1929.38
2018-09-09T12:44:07.067Z,1968.75
2018-09-09T12:45:08.332Z,1996.88
2018-09-09T12:46:08.598Z,2030.63
2018-09-09T12:47:09.822Z,2041.88
2018-09-09T12:48:09.874Z,2019.38
2018-09-09T12:49:10.303Z,1985.63
2018-09-09T12:50:11.016Z,1918.13
2018-09-09T12:51:11.446Z,1884.38
2018-09-09T12:52:12.427Z,1861.88
2018-09-09T12:53:13.132Z,1878.75
2018-09-09T12:54:14.132Z,1946.25
2018-09-09T12:55:15.117Z,2036.25
2018-09-09T12:56:15.548Z,2064.38
2018-09-09T12:57:16.255Z,2002.5
2018-09-09T12:58:16.682Z,1895.63
2018-09-09T12:59:17.110Z,1850.63
2018-09-09T13:00:18.190Z,1856.25
2018-09-09T13:01:17.617Z,1850.63
2018-09-09T13:02:18.045Z,1856.25
2018-09-09T13:03:18.470Z,1850.63
2018-09-09T13:04:19.471Z,1833.75
2018-09-09T13:05:20.179Z,1811.25
2018-09-09T13:06:20.890Z,1783.13
2018-09-09T13:07:21.131Z,1743.75
2018-09-09T13:08:21.572Z,1698.75
2018-09-09T13:09:22.002Z,1715.63
2018-09-09T13:10:22.151Z,1732.5
2018-09-09T13:11:22.860Z,1766.25
2018-09-09T13:12:23.288Z,1743.75
2018-09-09T13:13:23.440Z,1710
2018-09-09T13:14:24.721Z,1681.88
2018-09-09T13:15:25.448Z,1687.5
2018-09-09T13:16:26.156Z,1715.63
2018-09-09T13:17:26.306Z,1710
2018-09-09T13:18:26.457Z,1676.25
2018-09-09T13:19:27.163Z,1670.63
2018-09-09T13:20:27.595Z,1648.13